createdAt,value
2023-05-05T00:00:21.088Z,69.34
2023-05-05T00:02:49.865Z,68.25
2023-05-05T00:05:18.265Z,67.96
2023-05-05T00:07:47.941Z,68.48
2023-05-05T00:10:16.214Z,68.73
2023-05-05T00:12:45.180Z,68.39
2023-05-05T00:15:13.469Z,67.83
2023-05-05T00:17:41.775Z,67.87
2023-05-05T00:20:10.817Z,67.97
2023-05-05T00:31:18.191Z,67.72
2023-05-05T00:33:46.809Z,67.36
2023-05-05T00:36:15.989Z,67.47
2023-05-05T00:38:44.289Z,66.99
2023-05-05T00:41:12.573Z,67.70
2023-05-05T00:43:41.506Z,67.65
2023-05-05T00:46:15.464Z,67.64
2023-05-05T00:48:45.247Z,68.00
2023-05-05T00:55:26.225Z,68.43
2023-05-05T00:57:54.831Z,68.91
2023-05-05T01:00:23.356Z,69.25
2023-05-05T01:02:52.603Z,69.46
2023-05-05T01:10:19.030Z,71.25
2023-05-05T01:12:53.120Z,71.54
2023-05-05T01:15:28.656Z,71.95
2023-05-05T01:17:59.653Z,71.32
2023-05-05T01:25:44.510Z,71.40
2023-05-05T01:28:21.251Z,70.75
2023-05-05T01:31:03.238Z,71.51
2023-05-05T01:33:36.323Z,70.68
2023-05-05T01:36:05.791Z,69.46
2023-05-05T01:38:35.986Z,69.85
2023-05-05T01:41:07.032Z,69.59
2023-05-05T01:43:35.448Z,70.23
2023-05-05T01:50:23.402Z,69.16
2023-05-05T01:52:51.869Z,69.38
2023-05-05T01:55:20.471Z,69.68
2023-05-05T01:57:48.758Z,70.38
2023-05-05T02:04:34.963Z,72.13
2023-05-05T02:07:05.876Z,73.10
2023-05-05T02:09:34.136Z,72.43
2023-05-05T02:12:02.483Z,74.60
2023-05-05T02:19:13.702Z,76.87
2023-05-05T02:21:42.507Z,78.09
2023-05-05T02:24:12.913Z,79.44
2023-05-05T02:26:41.330Z,80.42
2023-05-05T02:41:07.630Z,83.13
2023-05-05T02:43:36.719Z,83.16
2023-05-05T02:46:05.640Z,83.15
2023-05-05T02:48:34.920Z,83.88
2023-05-05T02:51:57.991Z,84.05
2023-05-05T02:54:29.176Z,84.94
2023-05-05T02:56:59.310Z,84.49
2023-05-05T02:59:34.934Z,84.79
2023-05-05T03:10:46.056Z,84.36
2023-05-05T03:13:16.497Z,82.82
2023-05-05T03:15:48.406Z,82.47
2023-05-05T03:18:19.532Z,82.83
2023-05-05T03:34:07.433Z,75.65
2023-05-05T03:36:42.696Z,74.84
2023-05-05T03:39:13.883Z,73.29
2023-05-05T03:41:42.304Z,72.76
2023-05-05T03:52:49.650Z,71.99
2023-05-05T03:55:18.005Z,71.73
2023-05-05T03:57:46.768Z,71.27
2023-05-05T04:00:16.168Z,70.45
2023-05-05T04:02:46.994Z,71.02
2023-05-05T04:05:18.372Z,71.30
2023-05-05T04:07:46.708Z,72.34
2023-05-05T04:10:18.137Z,72.81
2023-05-05T04:13:17.136Z,74.30
2023-05-05T04:15:47.088Z,74.70
2023-05-05T04:18:16.641Z,75.06
2023-05-05T04:20:45.103Z,74.30
2023-05-05T04:23:13.666Z,75.44
2023-05-05T04:25:44.485Z,75.83
2023-05-05T04:28:14.115Z,76.14
2023-05-05T04:30:42.957Z,75.87
2023-05-05T04:33:11.762Z,75.26
2023-05-05T04:45:17.440Z,73.01
2023-05-05T04:47:47.658Z,73.55
2023-05-05T04:50:16.621Z,73.35
2023-05-05T04:52:45.214Z,73.71
2023-05-05T04:59:38.029Z,72.53
2023-05-05T05:02:06.505Z,71.89
2023-05-05T05:04:36.189Z,72.26
2023-05-05T05:07:04.480Z,71.65
2023-05-05T05:13:57.358Z,68.83
2023-05-05T05:16:26.360Z,68.71
2023-05-05T05:18:54.859Z,67.90
2023-05-05T05:21:26.119Z,67.24
2023-05-05T05:23:54.989Z,67.76
2023-05-05T05:26:23.434Z,67.88
2023-05-05T05:28:51.931Z,66.62
2023-05-05T05:31:20.852Z,66.51
2023-05-05T05:34:50.262Z,66.27
2023-05-05T05:37:21.035Z,66.21
2023-05-05T05:39:53.045Z,66.15
2023-05-05T05:42:23.176Z,66.29
2023-05-05T05:44:53.149Z,65.30
2023-05-05T05:47:21.553Z,65.53
2023-05-05T05:49:51.096Z,67.04
2023-05-05T05:52:22.419Z,64.40
2023-05-05T05:54:51.486Z,64.97
2023-05-05T05:58:21.105Z,64.18
2023-05-05T06:00:50.150Z,62.58
2023-05-05T06:03:18.614Z,61.35
2023-05-05T06:05:47.566Z,62.19
2023-05-05T06:08:43.198Z,61.96
2023-05-05T06:11:11.873Z,61.61
2023-05-05T06:13:40.506Z,61.62
2023-05-05T06:16:09.342Z,61.09
2023-05-05T06:23:04.142Z,59.61
2023-05-05T06:25:36.462Z,58.95
2023-05-05T06:28:05.665Z,59.67
2023-05-05T06:30:39.876Z,59.20
2023-05-05T06:33:08.206Z,60.65
2023-05-05T06:35:36.512Z,59.13
2023-05-05T06:38:05.460Z,58.09
2023-05-05T06:40:33.669Z,58.47
2023-05-05T06:47:04.514Z,56.56
2023-05-05T06:49:32.755Z,55.09
2023-05-05T06:52:01.702Z,53.92
2023-05-05T06:54:29.945Z,54.52
2023-05-05T06:56:59.523Z,54.30
2023-05-05T06:59:28.188Z,52.28
2023-05-05T07:01:56.637Z,50.07
2023-05-05T07:04:26.943Z,50.32
2023-05-05T07:10:56.727Z,48.08
2023-05-05T07:13:24.982Z,45.17
2023-05-05T07:15:53.557Z,44.76
2023-05-05T07:18:25.001Z,44.93
2023-05-05T07:20:54.645Z,46.95
2023-05-05T07:23:22.884Z,45.37
2023-05-05T07:25:51.754Z,43.71
2023-05-05T07:28:20.208Z,45.80
2023-05-05T07:30:48.482Z,44.57
2023-05-05T07:33:18.536Z,46.17
2023-05-05T07:35:46.922Z,42.70
2023-05-05T07:38:17.104Z,44.84
2023-05-05T07:40:45.456Z,44.65
2023-05-05T07:43:13.761Z,41.70
2023-05-05T07:45:42.078Z,43.24
2023-05-05T07:48:10.468Z,44.07
2023-05-05T07:54:47.845Z,41.94
2023-05-05T07:57:16.107Z,41.31
2023-05-05T07:59:44.517Z,41.70
2023-05-05T08:02:13.233Z,40.74
2023-05-05T08:05:43.115Z,40.94
2023-05-05T08:08:11.904Z,38.90
2023-05-05T08:10:41.601Z,39.52
2023-05-05T08:13:09.892Z,39.89
2023-05-05T08:15:38.258Z,37.74
2023-05-05T08:18:06.558Z,36.17
2023-05-05T08:20:35.196Z,37.62
2023-05-05T08:23:03.453Z,37.91
2023-05-05T08:25:31.849Z,40.24
2023-05-05T08:29:01.161Z,41.10
2023-05-05T08:31:33.509Z,40.18
2023-05-05T08:34:02.652Z,41.08
2023-05-05T08:36:31.157Z,42.13
2023-05-05T08:38:59.578Z,41.36
2023-05-05T08:41:27.831Z,38.27
2023-05-05T08:43:56.449Z,40.35
2023-05-05T08:46:24.915Z,38.40
2023-05-05T08:48:55.362Z,38.25
2023-05-05T08:51:23.611Z,36.98
2023-05-05T08:53:57.739Z,40.93
2023-05-05T08:56:27.990Z,39.80
2023-05-05T08:58:56.276Z,38.11
2023-05-05T09:05:43.524Z,34.87
2023-05-05T09:08:12.370Z,35.13
2023-05-05T09:10:42.000Z,37.40
2023-05-05T09:13:10.392Z,37.16
2023-05-05T09:16:17.602Z,36.18
2023-05-05T09:18:45.979Z,39.26
2023-05-05T09:21:22.815Z,42.59
2023-05-05T09:24:10.227Z,37.31
2023-05-05T09:30:57.175Z,41.25
2023-05-05T09:33:30.695Z,36.76
2023-05-05T09:35:59.191Z,37.37
2023-05-05T09:39:35.975Z,38.14
2023-05-05T09:42:06.404Z,42.79
2023-05-05T09:44:35.109Z,41.10
2023-05-05T09:47:07.182Z,39.69
2023-05-05T09:54:05.569Z,38.77
2023-05-05T09:56:40.514Z,38.21
2023-05-05T09:59:13.388Z,39.74
2023-05-05T10:01:43.469Z,35.29
2023-05-05T10:04:24.112Z,36.25
2023-05-05T10:06:52.418Z,36.74
2023-05-05T10:09:20.784Z,35.62
2023-05-05T10:11:49.078Z,31.66
2023-05-05T10:14:18.929Z,36.61
2023-05-05T10:16:49.823Z,39.33
2023-05-05T10:19:19.113Z,37.14
2023-05-05T10:21:49.369Z,36.68
2023-05-05T10:28:45.940Z,36.23
2023-05-05T10:31:25.801Z,34.27
2023-05-05T10:33:56.044Z,34.55
2023-05-05T10:36:24.333Z,38.24
2023-05-05T10:38:53.389Z,39.10
2023-05-05T10:41:21.710Z,36.50
2023-05-05T10:43:49.945Z,40.06
2023-05-05T10:46:19.630Z,34.21
2023-05-05T10:48:50.774Z,31.92
2023-05-05T10:51:39.297Z,32.64
2023-05-05T10:54:12.810Z,32.43
2023-05-05T10:56:41.842Z,36.16
2023-05-05T11:00:02.927Z,35.62
2023-05-05T11:02:32.882Z,34.34
2023-05-05T11:05:18.523Z,33.15
2023-05-05T11:07:47.261Z,35.28
2023-05-05T11:10:32.218Z,31.78
2023-05-05T11:13:19.639Z,35.60
2023-05-05T11:15:48.664Z,31.98
2023-05-05T11:18:44.509Z,31.06
2023-05-05T11:22:17.846Z,32.38
2023-05-05T11:24:47.369Z,33.63
2023-05-05T11:27:15.753Z,34.18
2023-05-05T11:30:06.083Z,32.01
2023-05-05T11:36:47.537Z,34.12
2023-05-05T11:39:22.312Z,35.02
2023-05-05T11:42:16.297Z,34.07
2023-05-05T11:44:44.529Z,34.14
2023-05-05T11:47:31.432Z,36.22
2023-05-05T11:50:00.920Z,35.00
2023-05-05T11:52:30.654Z,38.23
2023-05-05T11:55:03.833Z,34.42
2023-05-05T11:57:56.914Z,35.13
2023-05-05T12:00:34.995Z,35.12
2023-05-05T12:03:03.317Z,36.55
2023-05-05T12:05:32.777Z,34.79
2023-05-05T12:12:35.118Z,38.72
2023-05-05T12:15:03.451Z,40.44
2023-05-05T12:17:37.901Z,40.89
2023-05-05T12:20:07.563Z,42.35
2023-05-05T12:22:36.135Z,40.51
2023-05-05T12:25:05.311Z,41.17
2023-05-05T12:27:35.495Z,37.15
2023-05-05T12:30:15.156Z,37.31
2023-05-05T12:36:37.887Z,36.37
2023-05-05T12:39:06.692Z,38.60
2023-05-05T12:41:34.999Z,37.98
2023-05-05T12:44:04.767Z,38.01
2023-05-05T12:46:33.043Z,38.72
2023-05-05T12:49:01.949Z,39.70
2023-05-05T12:51:30.438Z,39.41
2023-05-05T12:55:00.483Z,38.71
2023-05-05T12:57:28.724Z,37.96
2023-05-05T12:59:58.642Z,37.74
2023-05-05T13:02:36.253Z,39.04
2023-05-05T13:09:31.236Z,39.59
2023-05-05T13:11:59.654Z,39.14
2023-05-05T13:14:30.699Z,43.21
2023-05-05T13:21:24.622Z,43.19
2023-05-05T13:23:52.868Z,44.60
2023-05-05T13:26:21.422Z,44.59
2023-05-05T13:28:49.635Z,43.14
2023-05-05T13:32:17.356Z,43.62
2023-05-05T13:34:45.849Z,44.30
2023-05-05T13:37:15.600Z,41.69
2023-05-05T13:39:43.944Z,43.68
2023-05-05T13:42:12.179Z,44.30
2023-05-05T13:53:05.562Z,44.52
2023-05-05T13:55:33.795Z,46.52
2023-05-05T13:58:01.993Z,44.93
2023-05-05T14:00:30.300Z,45.31
2023-05-05T14:07:18.433Z,44.04
2023-05-05T14:09:48.081Z,46.03
2023-05-05T14:12:16.385Z,44.75
2023-05-05T14:14:44.649Z,44.19
2023-05-05T14:17:59.884Z,44.18
2023-05-05T14:20:28.240Z,44.61
2023-05-05T14:22:56.457Z,40.97
2023-05-05T14:25:26.169Z,43.72
2023-05-05T14:27:54.971Z,42.75
2023-05-05T14:30:23.528Z,42.81
2023-05-05T14:32:51.897Z,46.53
2023-05-05T14:35:20.251Z,43.79
2023-05-05T14:37:48.536Z,43.78
2023-05-05T14:40:17.278Z,40.40
2023-05-05T14:42:46.966Z,43.30
2023-05-05T14:45:15.624Z,42.32
2023-05-05T14:47:43.912Z,42.63
2023-05-05T14:50:14.233Z,42.27
2023-05-05T14:53:00.903Z,43.03
2023-05-05T14:55:29.229Z,45.71
2023-05-05T14:57:59.084Z,46.03
2023-05-05T15:00:27.939Z,47.48
2023-05-05T15:02:56.321Z,45.49
2023-05-05T15:05:49.630Z,44.64
2023-05-05T15:08:19.300Z,44.06
2023-05-05T15:10:47.489Z,48.50
2023-05-05T15:13:17.324Z,48.69
2023-05-05T15:24:34.093Z,46.78
2023-05-05T15:27:02.961Z,44.78
2023-05-05T15:29:32.961Z,48.38
2023-05-05T15:32:01.619Z,50.34
2023-05-05T15:34:56.362Z,54.73
2023-05-05T15:37:24.654Z,59.59
2023-05-05T15:39:53.089Z,65.23
2023-05-05T15:42:21.324Z,71.06
2023-05-05T15:44:50.960Z,75.75
2023-05-05T15:47:19.458Z,78.73
2023-05-05T15:49:47.598Z,79.06
2023-05-05T15:52:15.908Z,76.69
2023-05-05T15:54:44.387Z,82.94
2023-05-05T15:57:12.691Z,81.79
2023-05-05T15:59:41.377Z,84.77
2023-05-05T16:02:11.014Z,85.29
2023-05-05T16:04:39.304Z,85.85
2023-05-05T16:07:07.574Z,88.94
2023-05-05T16:09:35.789Z,86.98
2023-05-05T16:12:04.430Z,85.19
2023-05-05T16:14:32.857Z,85.39
2023-05-05T16:20:56.064Z,83.76
2023-05-05T16:23:24.322Z,82.51
2023-05-05T16:25:52.662Z,84.67
2023-05-05T16:32:21.957Z,92.61
2023-05-05T16:34:50.338Z,93.01
2023-05-05T16:37:20.084Z,91.65
2023-05-05T16:39:48.357Z,90.50
2023-05-05T16:42:16.613Z,88.30
2023-05-05T16:44:45.081Z,89.46
2023-05-05T16:47:13.407Z,90.04
2023-05-05T16:49:41.670Z,91.53
2023-05-05T16:52:12.084Z,93.33
2023-05-05T16:54:41.716Z,93.36
2023-05-05T16:57:10.394Z,96.65
2023-05-05T16:59:38.644Z,97.14
2023-05-05T17:02:06.921Z,98.65
2023-05-05T17:04:35.321Z,99.72
2023-05-05T17:07:03.547Z,100.00
2023-05-05T17:09:31.819Z,100.00
2023-05-05T17:12:04.127Z,100.00
2023-05-05T17:14:33.606Z,100.00
2023-05-05T17:17:01.828Z,100.00
2023-05-05T17:19:30.077Z,100.00
2023-05-05T17:21:58.367Z,100.00
2023-05-05T17:24:26.583Z,100.00
2023-05-05T17:26:55.187Z,100.00
2023-05-05T17:29:24.808Z,100.00
2023-05-05T17:31:54.219Z,100.00
2023-05-05T17:35:26.373Z,100.00
2023-05-05T17:37:54.656Z,100.00
2023-05-05T17:40:23.171Z,100.00
2023-05-05T17:42:51.443Z,100.00
2023-05-05T17:45:21.251Z,100.00
2023-05-05T17:47:49.598Z,100.00
2023-05-05T17:50:17.946Z,100.00
2023-05-05T17:52:46.597Z,100.00
2023-05-05T17:55:14.821Z,100.00
2023-05-05T18:01:35.215Z,100.00
2023-05-05T18:04:03.577Z,100.00
2023-05-05T18:06:31.841Z,100.00
2023-05-05T18:09:00.460Z,100.00
2023-05-05T18:12:36.559Z,100.00
2023-05-05T18:15:05.675Z,100.00
2023-05-05T18:17:35.711Z,100.00
2023-05-05T18:20:06.752Z,100.00
2023-05-05T18:25:42.437Z,100.00
2023-05-05T18:28:10.974Z,100.00
2023-05-05T18:30:39.529Z,100.00
2023-05-05T18:34:09.972Z,100.00
2023-05-05T18:36:39.646Z,100.00
2023-05-05T18:39:08.100Z,100.00
2023-05-05T18:41:37.146Z,100.00
2023-05-05T18:44:05.374Z,100.00
2023-05-05T18:46:33.707Z,100.00
2023-05-05T18:49:02.234Z,100.00
2023-05-05T18:51:30.871Z,100.00
2023-05-05T18:54:01.083Z,100.00
2023-05-05T19:00:29.704Z,100.00
2023-05-05T19:02:58.064Z,100.00
2023-05-05T19:05:26.378Z,100.00
2023-05-05T19:08:25.687Z,100.00
2023-05-05T19:10:55.747Z,100.00
2023-05-05T19:13:23.939Z,100.00
2023-05-05T19:15:52.444Z,100.00
2023-05-05T19:18:20.711Z,100.00
2023-05-05T19:20:48.972Z,100.00
2023-05-05T19:23:17.188Z,100.00
2023-05-05T19:25:46.481Z,100.00
2023-05-05T19:28:16.130Z,100.00
2023-05-05T19:30:46.614Z,100.00
2023-05-05T19:33:15.041Z,100.00
2023-05-05T19:35:43.290Z,100.00
2023-05-05T19:38:12.077Z,100.00
2023-05-05T19:40:40.318Z,100.00
2023-05-05T19:43:08.608Z,100.00
2023-05-05T19:45:38.262Z,100.00
2023-05-05T19:48:07.198Z,100.00
2023-05-05T19:51:00.641Z,100.00
2023-05-05T19:53:28.963Z,100.00
2023-05-05T19:55:57.414Z,100.00
2023-05-05T19:58:25.718Z,100.00
2023-05-05T20:00:55.339Z,100.00
2023-05-05T20:03:23.649Z,100.00
2023-05-05T20:05:52.479Z,100.00
2023-05-05T20:08:20.782Z,100.00
2023-05-05T20:10:50.732Z,100.00
2023-05-05T20:14:28.016Z,100.00
2023-05-05T20:16:57.782Z,100.00
2023-05-05T20:19:26.433Z,100.00
2023-05-05T20:21:54.683Z,100.00
2023-05-05T20:24:22.934Z,100.00
2023-05-05T20:26:51.572Z,100.00
2023-05-05T20:29:20.357Z,100.00
2023-05-05T20:31:49.139Z,100.00
2023-05-05T20:34:19.109Z,100.00
2023-05-05T20:36:47.407Z,100.00
2023-05-05T20:39:16.155Z,100.00
2023-05-05T20:41:46.328Z,100.00
2023-05-05T20:44:14.674Z,100.00
2023-05-05T20:46:43.405Z,100.00
2023-05-05T20:49:12.031Z,100.00
2023-05-05T20:51:41.832Z,100.00
2023-05-05T20:54:10.689Z,100.00
2023-05-05T20:56:38.868Z,100.00
2023-05-05T20:59:07.098Z,100.00
2023-05-05T21:01:36.063Z,100.00
2023-05-05T21:04:04.344Z,100.00
2023-05-05T21:10:27.456Z,100.00
2023-05-05T21:12:56.074Z,100.00
2023-05-05T21:15:25.022Z,100.00
2023-05-05T21:21:00.040Z,100.00
2023-05-05T21:23:28.240Z,100.00
2023-05-05T21:25:57.800Z,100.00
2023-05-05T21:28:26.103Z,100.00
2023-05-05T21:31:19.604Z,100.00
2023-05-05T21:33:42.845Z,100.00
2023-05-05T21:36:11.373Z,100.00
2023-05-05T21:38:39.608Z,100.00
2023-05-05T21:41:10.157Z,100.00
2023-05-05T21:43:38.447Z,100.00
2023-05-05T21:46:07.417Z,100.00
2023-05-05T21:48:38.907Z,100.00
2023-05-05T21:51:34.671Z,100.00
2023-05-05T21:54:03.066Z,100.00
2023-05-05T21:56:33.971Z,100.00
2023-05-05T21:59:02.576Z,100.00
2023-05-05T22:02:05.263Z,100.00
2023-05-05T22:04:33.702Z,100.00
2023-05-05T22:07:01.963Z,100.00
2023-05-05T22:09:30.240Z,100.00
2023-05-05T22:12:00.641Z,100.00
2023-05-05T22:14:29.160Z,100.00
2023-05-05T22:16:57.366Z,100.00
2023-05-05T22:19:25.633Z,100.00
2023-05-05T22:21:53.830Z,100.00
2023-05-05T22:24:22.046Z,100.00
2023-05-05T22:26:50.607Z,100.00
2023-05-05T22:29:20.526Z,100.00
2023-05-05T22:31:48.861Z,100.00
2023-05-05T22:34:18.759Z,100.00
2023-05-05T22:40:40.359Z,100.00
2023-05-05T22:43:08.922Z,100.00
2023-05-05T22:45:38.624Z,100.00
2023-05-05T22:48:11.428Z,100.00
2023-05-05T22:50:39.653Z,100.00
2023-05-05T22:53:08.616Z,100.00
2023-05-05T22:55:36.923Z,100.00
2023-05-05T22:58:05.243Z,100.00
2023-05-05T23:00:33.498Z,100.00
2023-05-05T23:03:03.248Z,100.00
2023-05-05T23:05:31.453Z,100.00
2023-05-05T23:08:01.525Z,100.00
2023-05-05T23:10:54.611Z,100.00
2023-05-05T23:13:22.844Z,100.00
2023-05-05T23:15:51.112Z,100.00
2023-05-05T23:18:20.844Z,100.00
2023-05-05T23:20:49.066Z,100.00
2023-05-05T23:27:48.109Z,100.00
2023-05-05T23:30:16.861Z,100.00
2023-05-05T23:32:45.183Z,100.00
2023-05-05T23:35:15.370Z,100.00
2023-05-05T23:37:44.202Z,100.00
2023-05-05T23:44:00.427Z,100.00
2023-05-05T23:46:28.751Z,100.00
2023-05-05T23:48:57.290Z,100.00
2023-05-05T23:51:28.232Z,100.00
2023-05-05T23:58:27.767Z,100.00
